sensor_id;sensor_type;location;lat;lon;timestamp;P1;durP1;ratioP1;P2;durP2;ratioP2
45011;SDS011;63444;48.148;11.542;2022-10-28T00:00:21;6.77;;;2.97;;
45011;SDS011;63444;48.148;11.542;2022-10-28T00:02:47;5.13;;;3.20;;
45011;SDS011;63444;48.148;11.542;2022-10-28T00:05:13;3.27;;;2.87;;
45011;SDS011;63444;48.148;11.542;2022-10-28T00:07:38;5.07;;;3.17;;
45011;SDS011;63444;48.148;11.542;2022-10-28T00:10:04;5.23;;;3.10;;
45011;SDS011;63444;48.148;11.542;2022-10-28T00:12:33;5.17;;;3.00;;
45011;SDS011;63444;48.148;11.542;2022-10-28T00:15:00;3.60;;;2.63;;
45011;SDS011;63444;48.148;11.542;2022-10-28T00:17:26;3.53;;;2.73;;
45011;SDS011;63444;48.148;11.542;2022-10-28T00:19:51;5.10;;;2.53;;
45011;SDS011;63444;48.148;11.542;2022-10-28T00:22:17;5.80;;;3.03;;
45011;SDS011;63444;48.148;11.542;2022-10-28T00:24:42;5.60;;;3.10;;
45011;SDS011;63444;48.148;11.542;2022-10-28T00:27:08;6.37;;;2.90;;
45011;SDS011;63444;48.148;11.542;2022-10-28T00:29:33;6.07;;;3.40;;
45011;SDS011;63444;48.148;11.542;2022-10-28T00:31:59;5.80;;;3.20;;
45011;SDS011;63444;48.148;11.542;2022-10-28T00:34:25;6.93;;;2.93;;
45011;SDS011;63444;48.148;11.542;2022-10-28T00:36:50;5.23;;;2.90;;
45011;SDS011;63444;48.148;11.542;2022-10-28T00:39:21;5.93;;;3.17;;
45011;SDS011;63444;48.148;11.542;2022-10-28T00:41:49;6.20;;;3.20;;
45011;SDS011;63444;48.148;11.542;2022-10-28T00:47:01;6.60;;;3.10;;
45011;SDS011;63444;48.148;11.542;2022-10-28T00:49:27;6.73;;;3.20;;
45011;SDS011;63444;48.148;11.542;2022-10-28T00:51:58;5.10;;;2.63;;
45011;SDS011;63444;48.148;11.542;2022-10-28T00:54:27;5.97;;;2.63;;
45011;SDS011;63444;48.148;11.542;2022-10-28T00:56:54;5.60;;;2.37;;
45011;SDS011;63444;48.148;11.542;2022-10-28T00:59:24;4.83;;;2.23;;
45011;SDS011;63444;48.148;11.542;2022-10-28T01:01:52;6.13;;;2.30;;
45011;SDS011;63444;48.148;11.542;2022-10-28T01:04:18;4.50;;;2.63;;
45011;SDS011;63444;48.148;11.542;2022-10-28T01:06:45;3.33;;;2.20;;
45011;SDS011;63444;48.148;11.542;2022-10-28T01:09:13;7.20;;;2.23;;
45011;SDS011;63444;48.148;11.542;2022-10-28T01:11:44;4.73;;;2.50;;
45011;SDS011;63444;48.148;11.542;2022-10-28T01:14:45;2.73;;;2.20;;
45011;SDS011;63444;48.148;11.542;2022-10-28T01:26:06;5.03;;;2.50;;
45011;SDS011;63444;48.148;11.542;2022-10-28T01:31:58;3.90;;;2.40;;
45011;SDS011;63444;48.148;11.542;2022-10-28T01:37:16;5.20;;;2.33;;
45011;SDS011;63444;48.148;11.542;2022-10-28T01:42:29;3.10;;;2.00;;
45011;SDS011;63444;48.148;11.542;2022-10-28T01:45:17;3.20;;;2.20;;
45011;SDS011;63444;48.148;11.542;2022-10-28T01:47:55;4.47;;;2.20;;
45011;SDS011;63444;48.148;11.542;2022-10-28T01:53:00;3.80;;;2.00;;
45011;SDS011;63444;48.148;11.542;2022-10-28T01:55:32;3.40;;;2.20;;
45011;SDS011;63444;48.148;11.542;2022-10-28T01:58:02;3.20;;;2.00;;
45011;SDS011;63444;48.148;11.542;2022-10-28T02:00:31;4.17;;;2.40;;
45011;SDS011;63444;48.148;11.542;2022-10-28T02:02:58;2.50;;;2.07;;
45011;SDS011;63444;48.148;11.542;2022-10-28T02:05:40;4.37;;;2.43;;
45011;SDS011;63444;48.148;11.542;2022-10-28T02:11:29;6.77;;;2.23;;
45011;SDS011;63444;48.148;11.542;2022-10-28T02:14:06;7.90;;;2.50;;
45011;SDS011;63444;48.148;11.542;2022-10-28T02:16:56;8.40;;;2.40;;
45011;SDS011;63444;48.148;11.542;2022-10-28T02:19:42;6.17;;;2.37;;
45011;SDS011;63444;48.148;11.542;2022-10-28T02:22:17;5.50;;;2.47;;
45011;SDS011;63444;48.148;11.542;2022-10-28T02:27:37;3.50;;;2.10;;
45011;SDS011;63444;48.148;11.542;2022-10-28T02:30:13;6.03;;;2.30;;
45011;SDS011;63444;48.148;11.542;2022-10-28T02:32:45;3.47;;;2.03;;
45011;SDS011;63444;48.148;11.542;2022-10-28T02:35:36;3.13;;;2.07;;
45011;SDS011;63444;48.148;11.542;2022-10-28T02:38:20;3.30;;;2.43;;
45011;SDS011;63444;48.148;11.542;2022-10-28T02:40:58;6.53;;;2.67;;
45011;SDS011;63444;48.148;11.542;2022-10-28T02:43:26;3.90;;;2.30;;
45011;SDS011;63444;48.148;11.542;2022-10-28T02:45:56;3.37;;;2.27;;
45011;SDS011;63444;48.148;11.542;2022-10-28T02:48:34;4.80;;;2.20;;
45011;SDS011;63444;48.148;11.542;2022-10-28T02:51:09;4.13;;;2.67;;
45011;SDS011;63444;48.148;11.542;2022-10-28T02:53:40;4.23;;;2.70;;
45011;SDS011;63444;48.148;11.542;2022-10-28T02:56:30;5.80;;;2.83;;
45011;SDS011;63444;48.148;11.542;2022-10-28T02:59:02;4.93;;;2.67;;
45011;SDS011;63444;48.148;11.542;2022-10-28T03:01:32;6.10;;;2.43;;
45011;SDS011;63444;48.148;11.542;2022-10-28T03:03:58;4.13;;;2.40;;
45011;SDS011;63444;48.148;11.542;2022-10-28T03:06:24;4.97;;;2.77;;
45011;SDS011;63444;48.148;11.542;2022-10-28T03:08:49;7.53;;;2.70;;
45011;SDS011;63444;48.148;11.542;2022-10-28T03:11:15;5.90;;;2.70;;
45011;SDS011;63444;48.148;11.542;2022-10-28T03:13:40;4.67;;;2.53;;
45011;SDS011;63444;48.148;11.542;2022-10-28T03:16:06;6.80;;;2.67;;
45011;SDS011;63444;48.148;11.542;2022-10-28T03:18:31;4.47;;;2.70;;
45011;SDS011;63444;48.148;11.542;2022-10-28T03:20:57;3.93;;;2.20;;
45011;SDS011;63444;48.148;11.542;2022-10-28T03:23:22;5.63;;;2.20;;
45011;SDS011;63444;48.148;11.542;2022-10-28T03:25:48;4.07;;;2.40;;
45011;SDS011;63444;48.148;11.542;2022-10-28T03:28:14;4.83;;;2.20;;
45011;SDS011;63444;48.148;11.542;2022-10-28T03:30:39;3.17;;;2.00;;
45011;SDS011;63444;48.148;11.542;2022-10-28T03:33:06;4.43;;;2.33;;
45011;SDS011;63444;48.148;11.542;2022-10-28T03:35:31;3.90;;;2.43;;
45011;SDS011;63444;48.148;11.542;2022-10-28T03:37:57;3.77;;;1.90;;
45011;SDS011;63444;48.148;11.542;2022-10-28T03:40:23;5.30;;;2.20;;
45011;SDS011;63444;48.148;11.542;2022-10-28T03:42:48;4.00;;;2.40;;
45011;SDS011;63444;48.148;11.542;2022-10-28T03:45:14;5.43;;;2.50;;
45011;SDS011;63444;48.148;11.542;2022-10-28T03:47:39;3.83;;;2.40;;
45011;SDS011;63444;48.148;11.542;2022-10-28T03:50:05;5.23;;;2.43;;
45011;SDS011;63444;48.148;11.542;2022-10-28T03:52:31;3.40;;;2.07;;
45011;SDS011;63444;48.148;11.542;2022-10-28T03:54:56;6.87;;;2.40;;
45011;SDS011;63444;48.148;11.542;2022-10-28T03:57:22;3.60;;;1.93;;
45011;SDS011;63444;48.148;11.542;2022-10-28T03:59:48;3.07;;;2.20;;
45011;SDS011;63444;48.148;11.542;2022-10-28T04:02:13;5.73;;;1.90;;
45011;SDS011;63444;48.148;11.542;2022-10-28T04:04:39;3.63;;;2.40;;
45011;SDS011;63444;48.148;11.542;2022-10-28T04:07:05;5.13;;;1.93;;
45011;SDS011;63444;48.148;11.542;2022-10-28T04:09:32;6.93;;;2.50;;
45011;SDS011;63444;48.148;11.542;2022-10-28T04:11:57;4.20;;;2.10;;
45011;SDS011;63444;48.148;11.542;2022-10-28T04:14:23;5.63;;;2.37;;
45011;SDS011;63444;48.148;11.542;2022-10-28T04:16:48;3.30;;;2.50;;
45011;SDS011;63444;48.148;11.542;2022-10-28T04:19:14;3.93;;;2.50;;
45011;SDS011;63444;48.148;11.542;2022-10-28T04:21:40;6.97;;;3.07;;
45011;SDS011;63444;48.148;11.542;2022-10-28T04:24:05;4.93;;;2.57;;
45011;SDS011;63444;48.148;11.542;2022-10-28T04:26:31;5.70;;;2.80;;
45011;SDS011;63444;48.148;11.542;2022-10-28T04:28:56;4.20;;;2.53;;
45011;SDS011;63444;48.148;11.542;2022-10-28T04:31:22;7.03;;;2.67;;
45011;SDS011;63444;48.148;11.542;2022-10-28T04:33:47;4.40;;;2.67;;
45011;SDS011;63444;48.148;11.542;2022-10-28T04:36:13;4.20;;;2.50;;
45011;SDS011;63444;48.148;11.542;2022-10-28T04:38:38;5.53;;;2.90;;
45011;SDS011;63444;48.148;11.542;2022-10-28T04:41:05;4.67;;;2.80;;
45011;SDS011;63444;48.148;11.542;2022-10-28T04:43:32;5.63;;;2.70;;
45011;SDS011;63444;48.148;11.542;2022-10-28T04:45:57;8.20;;;3.00;;
45011;SDS011;63444;48.148;11.542;2022-10-28T04:48:26;5.50;;;2.83;;
45011;SDS011;63444;48.148;11.542;2022-10-28T04:50:51;6.13;;;2.87;;
45011;SDS011;63444;48.148;11.542;2022-10-28T04:53:18;6.20;;;2.67;;
45011;SDS011;63444;48.148;11.542;2022-10-28T04:55:43;6.10;;;2.60;;
45011;SDS011;63444;48.148;11.542;2022-10-28T04:58:09;7.37;;;3.03;;
45011;SDS011;63444;48.148;11.542;2022-10-28T05:00:34;5.30;;;2.70;;
45011;SDS011;63444;48.148;11.542;2022-10-28T05:03:01;6.93;;;2.50;;
45011;SDS011;63444;48.148;11.542;2022-10-28T05:05:27;5.43;;;2.97;;
45011;SDS011;63444;48.148;11.542;2022-10-28T05:07:52;9.90;;;3.23;;
45011;SDS011;63444;48.148;11.542;2022-10-28T05:10:18;8.43;;;2.83;;
45011;SDS011;63444;48.148;11.542;2022-10-28T05:12:46;6.10;;;2.73;;
45011;SDS011;63444;48.148;11.542;2022-10-28T05:15:13;8.67;;;2.87;;
45011;SDS011;63444;48.148;11.542;2022-10-28T05:17:42;6.67;;;2.70;;
45011;SDS011;63444;48.148;11.542;2022-10-28T05:20:09;7.47;;;2.47;;
45011;SDS011;63444;48.148;11.542;2022-10-28T05:22:36;4.77;;;2.57;;
45011;SDS011;63444;48.148;11.542;2022-10-28T05:25:02;7.83;;;2.40;;
45011;SDS011;63444;48.148;11.542;2022-10-28T05:27:29;5.60;;;2.23;;
45011;SDS011;63444;48.148;11.542;2022-10-28T05:29:55;6.10;;;2.43;;
45011;SDS011;63444;48.148;11.542;2022-10-28T05:32:20;5.97;;;2.30;;
45011;SDS011;63444;48.148;11.542;2022-10-28T05:34:46;5.03;;;2.50;;
45011;SDS011;63444;48.148;11.542;2022-10-28T05:37:11;5.93;;;2.50;;
45011;SDS011;63444;48.148;11.542;2022-10-28T05:39:37;5.00;;;2.57;;
45011;SDS011;63444;48.148;11.542;2022-10-28T05:42:03;10.57;;;3.23;;
45011;SDS011;63444;48.148;11.542;2022-10-28T05:44:28;7.53;;;3.00;;
45011;SDS011;63444;48.148;11.542;2022-10-28T05:46:54;10.13;;;2.83;;
45011;SDS011;63444;48.148;11.542;2022-10-28T05:49:20;4.80;;;2.50;;
45011;SDS011;63444;48.148;11.542;2022-10-28T05:51:46;5.23;;;2.43;;
45011;SDS011;63444;48.148;11.542;2022-10-28T05:54:12;5.53;;;2.57;;
45011;SDS011;63444;48.148;11.542;2022-10-28T05:56:40;11.03;;;3.20;;
45011;SDS011;63444;48.148;11.542;2022-10-28T05:59:06;7.77;;;3.00;;
45011;SDS011;63444;48.148;11.542;2022-10-28T06:01:31;6.87;;;3.10;;
45011;SDS011;63444;48.148;11.542;2022-10-28T06:03:57;3.27;;;2.37;;
45011;SDS011;63444;48.148;11.542;2022-10-28T06:06:22;6.20;;;2.60;;
45011;SDS011;63444;48.148;11.542;2022-10-28T06:08:48;6.87;;;2.37;;
45011;SDS011;63444;48.148;11.542;2022-10-28T06:11:13;6.50;;;2.60;;
45011;SDS011;63444;48.148;11.542;2022-10-28T06:13:39;8.03;;;2.60;;
45011;SDS011;63444;48.148;11.542;2022-10-28T06:16:04;13.23;;;3.53;;
45011;SDS011;63444;48.148;11.542;2022-10-28T06:18:30;20.53;;;3.80;;
45011;SDS011;63444;48.148;11.542;2022-10-28T06:20:57;26.43;;;4.10;;
45011;SDS011;63444;48.148;11.542;2022-10-28T06:23:24;17.23;;;3.60;;
45011;SDS011;63444;48.148;11.542;2022-10-28T06:25:51;16.70;;;3.80;;
45011;SDS011;63444;48.148;11.542;2022-10-28T06:28:21;13.67;;;3.57;;
45011;SDS011;63444;48.148;11.542;2022-10-28T06:30:47;10.47;;;3.40;;
45011;SDS011;63444;48.148;11.542;2022-10-28T06:33:12;8.93;;;4.07;;
45011;SDS011;63444;48.148;11.542;2022-10-28T06:35:38;7.73;;;3.90;;
45011;SDS011;63444;48.148;11.542;2022-10-28T06:38:03;6.33;;;3.37;;
45011;SDS011;63444;48.148;11.542;2022-10-28T06:40:29;6.83;;;3.47;;
45011;SDS011;63444;48.148;11.542;2022-10-28T06:45:27;4.47;;;2.90;;
45011;SDS011;63444;48.148;11.542;2022-10-28T06:47:58;5.70;;;3.20;;
45011;SDS011;63444;48.148;11.542;2022-10-28T06:50:25;4.90;;;2.90;;
45011;SDS011;63444;48.148;11.542;2022-10-28T06:52:56;5.30;;;3.13;;
45011;SDS011;63444;48.148;11.542;2022-10-28T06:55:22;7.87;;;3.17;;
45011;SDS011;63444;48.148;11.542;2022-10-28T06:57:49;13.00;;;4.00;;
45011;SDS011;63444;48.148;11.542;2022-10-28T07:00:15;7.73;;;3.20;;
45011;SDS011;63444;48.148;11.542;2022-10-28T07:02:41;6.10;;;3.40;;
45011;SDS011;63444;48.148;11.542;2022-10-28T07:05:07;11.00;;;4.00;;
45011;SDS011;63444;48.148;11.542;2022-10-28T07:07:33;12.80;;;3.90;;
45011;SDS011;63444;48.148;11.542;2022-10-28T07:10:01;9.63;;;3.50;;
45011;SDS011;63444;48.148;11.542;2022-10-28T07:12:30;8.83;;;3.53;;
45011;SDS011;63444;48.148;11.542;2022-10-28T07:14:55;7.23;;;3.23;;
45011;SDS011;63444;48.148;11.542;2022-10-28T07:17:24;13.27;;;4.07;;
45011;SDS011;63444;48.148;11.542;2022-10-28T07:19:50;14.80;;;3.87;;
45011;SDS011;63444;48.148;11.542;2022-10-28T07:22:16;32.50;;;5.73;;
45011;SDS011;63444;48.148;11.542;2022-10-28T07:24:42;31.17;;;6.97;;
45011;SDS011;63444;48.148;11.542;2022-10-28T07:27:07;33.20;;;7.33;;
45011;SDS011;63444;48.148;11.542;2022-10-28T07:29:33;32.53;;;6.50;;
45011;SDS011;63444;48.148;11.542;2022-10-28T07:31:59;25.87;;;5.80;;
45011;SDS011;63444;48.148;11.542;2022-10-28T07:34:25;22.73;;;5.40;;
45011;SDS011;63444;48.148;11.542;2022-10-28T07:36:51;17.87;;;5.47;;
45011;SDS011;63444;48.148;11.542;2022-10-28T07:39:18;25.37;;;6.00;;
45011;SDS011;63444;48.148;11.542;2022-10-28T07:41:44;24.03;;;5.50;;
45011;SDS011;63444;48.148;11.542;2022-10-28T07:44:10;15.00;;;4.73;;
45011;SDS011;63444;48.148;11.542;2022-10-28T07:46:36;21.83;;;6.17;;
45011;SDS011;63444;48.148;11.542;2022-10-28T07:49:02;19.53;;;5.10;;
45011;SDS011;63444;48.148;11.542;2022-10-28T07:51:28;19.90;;;5.20;;
45011;SDS011;63444;48.148;11.542;2022-10-28T07:53:56;13.53;;;4.40;;
45011;SDS011;63444;48.148;11.542;2022-10-28T07:56:22;12.80;;;4.03;;
45011;SDS011;63444;48.148;11.542;2022-10-28T07:58:49;8.93;;;3.90;;
45011;SDS011;63444;48.148;11.542;2022-10-28T08:01:15;10.80;;;4.10;;
45011;SDS011;63444;48.148;11.542;2022-10-28T08:03:43;12.23;;;3.90;;
45011;SDS011;63444;48.148;11.542;2022-10-28T08:06:14;10.87;;;4.10;;
45011;SDS011;63444;48.148;11.542;2022-10-28T08:08:42;7.73;;;3.70;;
45011;SDS011;63444;48.148;11.542;2022-10-28T08:11:13;10.33;;;3.83;;
45011;SDS011;63444;48.148;11.542;2022-10-28T08:13:40;7.03;;;3.60;;
45011;SDS011;63444;48.148;11.542;2022-10-28T08:16:06;9.00;;;3.30;;
45011;SDS011;63444;48.148;11.542;2022-10-28T08:18:33;7.40;;;2.70;;
45011;SDS011;63444;48.148;11.542;2022-10-28T08:20:59;8.57;;;3.33;;
45011;SDS011;63444;48.148;11.542;2022-10-28T08:23:26;7.00;;;2.60;;
45011;SDS011;63444;48.148;11.542;2022-10-28T08:25:52;8.07;;;3.13;;
45011;SDS011;63444;48.148;11.542;2022-10-28T08:28:18;10.17;;;2.73;;
45011;SDS011;63444;48.148;11.542;2022-10-28T08:30:44;9.27;;;3.47;;
45011;SDS011;63444;48.148;11.542;2022-10-28T08:33:10;8.13;;;2.87;;
45011;SDS011;63444;48.148;11.542;2022-10-28T08:35:36;5.67;;;2.30;;
45011;SDS011;63444;48.148;11.542;2022-10-28T08:38:02;8.20;;;2.77;;
45011;SDS011;63444;48.148;11.542;2022-10-28T08:43:25;8.00;;;2.50;;
45011;SDS011;63444;48.148;11.542;2022-10-28T08:48:34;10.17;;;3.17;;
45011;SDS011;63444;48.148;11.542;2022-10-28T08:51:04;11.80;;;3.17;;
45011;SDS011;63444;48.148;11.542;2022-10-28T08:53:50;18.97;;;4.00;;
45011;SDS011;63444;48.148;11.542;2022-10-28T08:56:23;23.67;;;5.90;;
45011;SDS011;63444;48.148;11.542;2022-10-28T08:59:00;27.13;;;4.87;;
45011;SDS011;63444;48.148;11.542;2022-10-28T09:01:38;5.00;;;2.47;;
45011;SDS011;63444;48.148;11.542;2022-10-28T09:04:22;11.17;;;2.57;;
45011;SDS011;63444;48.148;11.542;2022-10-28T09:06:49;5.80;;;2.07;;
45011;SDS011;63444;48.148;11.542;2022-10-28T09:09:18;6.40;;;2.25;;
45011;SDS011;63444;48.148;11.542;2022-10-28T09:11:57;3.93;;;1.57;;
45011;SDS011;63444;48.148;11.542;2022-10-28T09:33:46;21.20;;;3.22;;
45011;SDS011;63444;48.148;11.542;2022-10-28T09:36:29;10.50;;;2.60;;
45011;SDS011;63444;48.148;11.542;2022-10-28T09:38:59;12.27;;;2.70;;
45011;SDS011;63444;48.148;11.542;2022-10-28T09:41:33;7.65;;;2.30;;
45011;SDS011;63444;48.148;11.542;2022-10-28T09:44:10;5.13;;;2.22;;
45011;SDS011;63444;48.148;11.542;2022-10-28T09:46:57;8.18;;;2.72;;
45011;SDS011;63444;48.148;11.542;2022-10-28T09:49:35;9.63;;;2.42;;
45011;SDS011;63444;48.148;11.542;2022-10-28T09:54:41;10.38;;;2.80;;
45011;SDS011;63444;48.148;11.542;2022-10-28T09:57:12;9.60;;;2.65;;
45011;SDS011;63444;48.148;11.542;2022-10-28T09:59:37;18.98;;;3.30;;
45011;SDS011;63444;48.148;11.542;2022-10-28T10:02:03;13.57;;;2.97;;
45011;SDS011;63444;48.148;11.542;2022-10-28T10:04:29;8.50;;;2.13;;
45011;SDS011;63444;48.148;11.542;2022-10-28T10:09:26;5.03;;;1.70;;
45011;SDS011;63444;48.148;11.542;2022-10-28T10:11:58;5.05;;;1.90;;
45011;SDS011;63444;48.148;11.542;2022-10-28T10:14:29;6.78;;;2.40;;
45011;SDS011;63444;48.148;11.542;2022-10-28T10:17:17;2.97;;;1.63;;
45011;SDS011;63444;48.148;11.542;2022-10-28T10:22:37;4.95;;;1.55;;
45011;SDS011;63444;48.148;11.542;2022-10-28T10:25:23;3.42;;;1.75;;
45011;SDS011;63444;48.148;11.542;2022-10-28T10:28:13;3.92;;;1.75;;
45011;SDS011;63444;48.148;11.542;2022-10-28T10:31:02;7.97;;;2.17;;
45011;SDS011;63444;48.148;11.542;2022-10-28T10:33:32;3.58;;;1.50;;
45011;SDS011;63444;48.148;11.542;2022-10-28T10:38:45;5.30;;;1.60;;
45011;SDS011;63444;48.148;11.542;2022-10-28T10:46:46;4.82;;;1.70;;
45011;SDS011;63444;48.148;11.542;2022-10-28T10:49:24;13.55;;;2.13;;
45011;SDS011;63444;48.148;11.542;2022-10-28T10:51:51;6.15;;;1.60;;
45011;SDS011;63444;48.148;11.542;2022-10-28T10:54:17;4.20;;;1.42;;
45011;SDS011;63444;48.148;11.542;2022-10-28T10:56:44;3.03;;;1.50;;
45011;SDS011;63444;48.148;11.542;2022-10-28T10:59:44;3.80;;;1.48;;
45011;SDS011;63444;48.148;11.542;2022-10-28T11:02:02;3.08;;;1.20;;
45011;SDS011;63444;48.148;11.542;2022-10-28T11:04:47;8.20;;;1.98;;
45011;SDS011;63444;48.148;11.542;2022-10-28T11:07:18;8.50;;;2.20;;
45011;SDS011;63444;48.148;11.542;2022-10-28T11:09:46;7.90;;;1.80;;
45011;SDS011;63444;48.148;11.542;2022-10-28T11:12:14;4.90;;;1.65;;
45011;SDS011;63444;48.148;11.542;2022-10-28T11:15:00;18.48;;;2.22;;
45011;SDS011;63444;48.148;11.542;2022-10-28T11:17:32;4.63;;;1.45;;
45011;SDS011;63444;48.148;11.542;2022-10-28T11:20:00;13.48;;;2.30;;
45011;SDS011;63444;48.148;11.542;2022-10-28T11:23:14;5.50;;;1.80;;
45011;SDS011;63444;48.148;11.542;2022-10-28T11:25:59;9.30;;;1.60;;
45011;SDS011;63444;48.148;11.542;2022-10-28T11:45:25;5.32;;;1.20;;
45011;SDS011;63444;48.148;11.542;2022-10-28T11:48:03;4.03;;;1.60;;
45011;SDS011;63444;48.148;11.542;2022-10-28T12:12:59;14.02;;;1.90;;
45011;SDS011;63444;48.148;11.542;2022-10-28T12:15:36;20.50;;;2.80;;
45011;SDS011;63444;48.148;11.542;2022-10-28T12:23:18;4.22;;;1.80;;
45011;SDS011;63444;48.148;11.542;2022-10-28T12:25:46;4.13;;;1.98;;
45011;SDS011;63444;48.148;11.542;2022-10-28T12:31:00;3.63;;;1.30;;
45011;SDS011;63444;48.148;11.542;2022-10-28T12:33:39;3.03;;;1.50;;
45011;SDS011;63444;48.148;11.542;2022-10-28T12:36:12;3.25;;;1.73;;
45011;SDS011;63444;48.148;11.542;2022-10-28T12:41:53;4.00;;;1.25;;
45011;SDS011;63444;48.148;11.542;2022-10-28T12:44:28;4.50;;;1.40;;
45011;SDS011;63444;48.148;11.542;2022-10-28T12:52:55;5.25;;;1.55;;
45011;SDS011;63444;48.148;11.542;2022-10-28T12:58:03;4.40;;;1.45;;
45011;SDS011;63444;48.148;11.542;2022-10-28T13:00:44;3.13;;;1.30;;
45011;SDS011;63444;48.148;11.542;2022-10-28T13:03:15;15.05;;;2.72;;
45011;SDS011;63444;48.148;11.542;2022-10-28T13:05:43;21.55;;;2.75;;
45011;SDS011;63444;48.148;11.542;2022-10-28T13:08:35;15.73;;;2.45;;
45011;SDS011;63444;48.148;11.542;2022-10-28T13:22:13;4.93;;;1.52;;
45011;SDS011;63444;48.148;11.542;2022-10-28T13:24:50;4.65;;;1.55;;
45011;SDS011;63444;48.148;11.542;2022-10-28T13:27:39;4.20;;;1.48;;
45011;SDS011;63444;48.148;11.542;2022-10-28T13:30:05;4.20;;;1.50;;
45011;SDS011;63444;48.148;11.542;2022-10-28T13:32:40;3.83;;;1.52;;
45011;SDS011;63444;48.148;11.542;2022-10-28T13:35:10;5.75;;;2.58;;
45011;SDS011;63444;48.148;11.542;2022-10-28T13:37:55;22.50;;;3.40;;
45011;SDS011;63444;48.148;11.542;2022-10-28T13:42:58;8.43;;;1.90;;
45011;SDS011;63444;48.148;11.542;2022-10-28T13:45:43;6.43;;;1.70;;
45011;SDS011;63444;48.148;11.542;2022-10-28T13:56:20;5.35;;;1.58;;
45011;SDS011;63444;48.148;11.542;2022-10-28T14:04:21;7.28;;;1.98;;
45011;SDS011;63444;48.148;11.542;2022-10-28T14:07:27;13.50;;;2.30;;
45011;SDS011;63444;48.148;11.542;2022-10-28T14:09:49;6.50;;;1.77;;
45011;SDS011;63444;48.148;11.542;2022-10-28T14:12:21;8.63;;;1.95;;
45011;SDS011;63444;48.148;11.542;2022-10-28T14:14:59;16.65;;;2.83;;
45011;SDS011;63444;48.148;11.542;2022-10-28T14:17:53;15.82;;;2.50;;
45011;SDS011;63444;48.148;11.542;2022-10-28T14:20:29;18.23;;;2.70;;
45011;SDS011;63444;48.148;11.542;2022-10-28T14:33:35;23.85;;;3.22;;
45011;SDS011;63444;48.148;11.542;2022-10-28T14:39:11;25.05;;;3.83;;
45011;SDS011;63444;48.148;11.542;2022-10-28T14:47:43;37.67;;;6.68;;
45011;SDS011;63444;48.148;11.542;2022-10-28T14:50:23;39.15;;;6.30;;
45011;SDS011;63444;48.148;11.542;2022-10-28T14:52:58;14.98;;;3.47;;
45011;SDS011;63444;48.148;11.542;2022-10-28T14:55:29;33.78;;;6.35;;
45011;SDS011;63444;48.148;11.542;2022-10-28T15:01:31;34.35;;;4.90;;
45011;SDS011;63444;48.148;11.542;2022-10-28T15:03:42;34.58;;;5.30;;
45011;SDS011;63444;48.148;11.542;2022-10-28T15:06:36;28.23;;;4.80;;
45011;SDS011;63444;48.148;11.542;2022-10-28T15:11:41;14.07;;;3.28;;
45011;SDS011;63444;48.148;11.542;2022-10-28T15:14:22;16.00;;;3.72;;
45011;SDS011;63444;48.148;11.542;2022-10-28T15:16:55;17.83;;;3.28;;
45011;SDS011;63444;48.148;11.542;2022-10-28T15:19:23;11.52;;;3.42;;
45011;SDS011;63444;48.148;11.542;2022-10-28T15:24:36;10.75;;;2.95;;
45011;SDS011;63444;48.148;11.542;2022-10-28T15:27:02;11.27;;;2.92;;
45011;SDS011;63444;48.148;11.542;2022-10-28T15:29:27;10.93;;;3.20;;
45011;SDS011;63444;48.148;11.542;2022-10-28T15:34:34;16.90;;;3.72;;
45011;SDS011;63444;48.148;11.542;2022-10-28T15:37:00;37.22;;;6.05;;
45011;SDS011;63444;48.148;11.542;2022-10-28T15:39:26;58.10;;;7.30;;
45011;SDS011;63444;48.148;11.542;2022-10-28T15:41:52;17.60;;;4.07;;
45011;SDS011;63444;48.148;11.542;2022-10-28T15:47:24;24.77;;;4.15;;
45011;SDS011;63444;48.148;11.542;2022-10-28T15:49:58;19.52;;;4.07;;
45011;SDS011;63444;48.148;11.542;2022-10-28T15:52:33;17.33;;;4.40;;
45011;SDS011;63444;48.148;11.542;2022-10-28T15:55:23;14.95;;;4.25;;
45011;SDS011;63444;48.148;11.542;2022-10-28T15:57:51;11.98;;;3.58;;
45011;SDS011;63444;48.148;11.542;2022-10-28T16:00:22;9.00;;;2.97;;
45011;SDS011;63444;48.148;11.542;2022-10-28T16:02:57;4.38;;;2.70;;
45011;SDS011;63444;48.148;11.542;2022-10-28T16:07:58;6.80;;;3.20;;
45011;SDS011;63444;48.148;11.542;2022-10-28T16:10:24;10.07;;;3.47;;
45011;SDS011;63444;48.148;11.542;2022-10-28T16:12:55;7.40;;;3.30;;
45011;SDS011;63444;48.148;11.542;2022-10-28T16:15:21;18.67;;;4.05;;
45011;SDS011;63444;48.148;11.542;2022-10-28T16:17:46;13.35;;;3.97;;
45011;SDS011;63444;48.148;11.542;2022-10-28T16:20:13;16.35;;;4.38;;
45011;SDS011;63444;48.148;11.542;2022-10-28T16:22:47;16.38;;;3.53;;
45011;SDS011;63444;48.148;11.542;2022-10-28T16:25:17;33.97;;;5.27;;
45011;SDS011;63444;48.148;11.542;2022-10-28T16:27:44;49.80;;;6.22;;
45011;SDS011;63444;48.148;11.542;2022-10-28T16:30:10;36.17;;;4.93;;
45011;SDS011;63444;48.148;11.542;2022-10-28T16:32:37;17.17;;;3.78;;
45011;SDS011;63444;48.148;11.542;2022-10-28T16:35:23;37.13;;;5.35;;
45011;SDS011;63444;48.148;11.542;2022-10-28T16:37:49;17.67;;;3.70;;
45011;SDS011;63444;48.148;11.542;2022-10-28T16:40:15;14.90;;;3.75;;
45011;SDS011;63444;48.148;11.542;2022-10-28T16:42:41;8.15;;;3.63;;
45011;SDS011;63444;48.148;11.542;2022-10-28T16:45:12;9.07;;;3.70;;
45011;SDS011;63444;48.148;11.542;2022-10-28T16:47:39;8.48;;;3.38;;
45011;SDS011;63444;48.148;11.542;2022-10-28T16:50:04;10.40;;;3.00;;
45011;SDS011;63444;48.148;11.542;2022-10-28T16:52:30;7.15;;;2.80;;
45011;SDS011;63444;48.148;11.542;2022-10-28T16:54:57;13.55;;;3.05;;
45011;SDS011;63444;48.148;11.542;2022-10-28T16:57:24;10.07;;;2.75;;
45011;SDS011;63444;48.148;11.542;2022-10-28T16:59:50;9.55;;;2.72;;
45011;SDS011;63444;48.148;11.542;2022-10-28T17:02:29;5.55;;;3.00;;
45011;SDS011;63444;48.148;11.542;2022-10-28T17:04:57;6.47;;;3.00;;
45011;SDS011;63444;48.148;11.542;2022-10-28T17:07:23;4.88;;;2.55;;
45011;SDS011;63444;48.148;11.542;2022-10-28T17:09:50;8.85;;;3.08;;
45011;SDS011;63444;48.148;11.542;2022-10-28T17:12:22;7.63;;;2.70;;
45011;SDS011;63444;48.148;11.542;2022-10-28T17:14:50;6.07;;;2.40;;
45011;SDS011;63444;48.148;11.542;2022-10-28T17:17:15;4.53;;;2.83;;
45011;SDS011;63444;48.148;11.542;2022-10-28T17:19:41;8.02;;;2.88;;
45011;SDS011;63444;48.148;11.542;2022-10-28T17:22:09;4.82;;;2.55;;
45011;SDS011;63444;48.148;11.542;2022-10-28T17:24:35;10.48;;;2.97;;
45011;SDS011;63444;48.148;11.542;2022-10-28T17:27:01;6.57;;;2.55;;
45011;SDS011;63444;48.148;11.542;2022-10-28T17:29:26;6.45;;;2.78;;
45011;SDS011;63444;48.148;11.542;2022-10-28T17:31:52;7.47;;;3.13;;
45011;SDS011;63444;48.148;11.542;2022-10-28T17:34:18;7.53;;;2.55;;
45011;SDS011;63444;48.148;11.542;2022-10-28T17:36:43;17.67;;;3.53;;
45011;SDS011;63444;48.148;11.542;2022-10-28T17:39:09;53.53;;;6.32;;
45011;SDS011;63444;48.148;11.542;2022-10-28T17:41:34;36.72;;;6.40;;
45011;SDS011;63444;48.148;11.542;2022-10-28T17:44:00;19.70;;;4.95;;
45011;SDS011;63444;48.148;11.542;2022-10-28T17:46:26;15.20;;;4.15;;
45011;SDS011;63444;48.148;11.542;2022-10-28T17:48:51;10.18;;;2.95;;
45011;SDS011;63444;48.148;11.542;2022-10-28T17:51:17;10.82;;;3.65;;
45011;SDS011;63444;48.148;11.542;2022-10-28T17:53:45;22.40;;;4.97;;
45011;SDS011;63444;48.148;11.542;2022-10-28T17:56:14;26.23;;;5.15;;
45011;SDS011;63444;48.148;11.542;2022-10-28T17:58:39;13.13;;;3.45;;
45011;SDS011;63444;48.148;11.542;2022-10-28T18:01:06;7.38;;;3.28;;